AFR84TL LFPG-LFML
Flight info
| Callsign | AFR84TL |
|---|---|
| Flight time | 1h 6m |
| Altitude | 31000 |
| Route | LATRA DCT LAMUT DCT UTUVA DCT LERGA |
| Aircraft | A320/M-SDE2E3FGIJ1RWY/HB1 |
Departure
| Time | 2026-05-04 19:56 |
|---|---|
| Airport | Charles de Gaulle International Airport (LFPG) |
Arrival
| Time | 2026-05-04 21:02 |
|---|---|
| Airport | Marseille Provence Airport (LFML) |
| Time | Latitude | Longitude | Altitude | Speed | Heading |
|---|---|---|---|---|---|
| 2026-05-04 19:25 | 49.00630 | 2.57589 | 355 ft | 0 kts | 262° |
| 2026-05-04 19:42 | 49.00633 | 2.57625 | 357 ft | 4 kts | 262° |
| 2026-05-04 19:42 | 49.00636 | 2.57656 | 363 ft | 4 kts | 284° |
| 2026-05-04 19:42 | 49.00621 | 2.57681 | 361 ft | 3 kts | 334° |
| 2026-05-04 19:43 | 49.00630 | 2.57676 | 357 ft | 4 kts | 342° |
| 2026-05-04 19:43 | 49.00656 | 2.57672 | 354 ft | 4 kts | 356° |
| 2026-05-04 19:43 | 49.00665 | 2.57671 | 354 ft | 0 kts | 355° |
| 2026-05-04 19:45 | 49.00705 | 2.57666 | 354 ft | 7 kts | 355° |
| 2026-05-04 19:45 | 49.00746 | 2.57655 | 354 ft | 5 kts | 328° |
| 2026-05-04 19:45 | 49.00773 | 2.57612 | 359 ft | 8 kts | 307° |
| 2026-05-04 19:46 | 49.00816 | 2.57571 | 357 ft | 7 kts | 347° |
| 2026-05-04 19:46 | 49.00870 | 2.57597 | 364 ft | 9 kts | 50° |
| 2026-05-04 19:46 | 49.00882 | 2.57657 | 361 ft | 0 kts | 88° |
| 2026-05-04 19:47 | 49.00874 | 2.57708 | 359 ft | 15 kts | 123° |
| 2026-05-04 19:47 | 49.00796 | 2.57668 | 359 ft | 13 kts | 253° |
| 2026-05-04 19:48 | 49.00778 | 2.57553 | 357 ft | 10 kts | 234° |
| 2026-05-04 19:48 | 49.00760 | 2.57430 | 354 ft | 13 kts | 266° |
| 2026-05-04 19:48 | 49.00754 | 2.57298 | 354 ft | 9 kts | 265° |
| 2026-05-04 19:48 | 49.00727 | 2.57254 | 357 ft | 11 kts | 206° |
| 2026-05-04 19:49 | 49.00674 | 2.57179 | 363 ft | 10 kts | 248° |
| 2026-05-04 19:49 | 49.00649 | 2.57045 | 361 ft | 17 kts | 256° |
| 2026-05-04 19:49 | 49.00630 | 2.56865 | 354 ft | 18 kts | 266° |
| 2026-05-04 19:49 | 49.00620 | 2.56666 | 358 ft | 20 kts | 265° |
| 2026-05-04 19:50 | 49.00608 | 2.56453 | 354 ft | 21 kts | 265° |
| 2026-05-04 19:50 | 49.00595 | 2.56224 | 354 ft | 23 kts | 265° |
| 2026-05-04 19:50 | 49.00567 | 2.55993 | 354 ft | 20 kts | 259° |
| 2026-05-04 19:50 | 49.00567 | 2.55802 | 355 ft | 17 kts | 265° |
| 2026-05-04 19:51 | 49.00559 | 2.55653 | 354 ft | 6 kts | 265° |
| 2026-05-04 19:51 | 49.00554 | 2.55541 | 354 ft | 20 kts | 267° |
| 2026-05-04 19:51 | 49.00533 | 2.55390 | 359 ft | 13 kts | 236° |
| 2026-05-04 19:51 | 49.00463 | 2.55331 | 356 ft | 11 kts | 187° |
| 2026-05-04 19:52 | 49.00380 | 2.55358 | 358 ft | 12 kts | 165° |
| 2026-05-04 19:52 | 49.00305 | 2.55389 | 361 ft | 11 kts | 163° |
| 2026-05-04 19:52 | 49.00235 | 2.55421 | 356 ft | 10 kts | 163° |
| 2026-05-04 19:52 | 49.00148 | 2.55460 | 356 ft | 21 kts | 163° |
| 2026-05-04 19:53 | 48.99998 | 2.55519 | 357 ft | 23 kts | 166° |
| 2026-05-04 19:53 | 48.99887 | 2.55601 | 354 ft | 14 kts | 141° |
| 2026-05-04 19:53 | 48.99837 | 2.55716 | 361 ft | 12 kts | 117° |
| 2026-05-04 19:53 | 48.99782 | 2.55797 | 360 ft | 11 kts | 163° |
| 2026-05-04 19:54 | 48.99708 | 2.55810 | 354 ft | 10 kts | 172° |
| 2026-05-04 19:54 | 48.99691 | 2.55813 | 354 ft | 0 kts | 172° |
| 2026-05-04 19:55 | 48.99643 | 2.55820 | 354 ft | 17 kts | 175° |
| 2026-05-04 19:55 | 48.99603 | 2.55904 | 353 ft | 9 kts | 85° |
| 2026-05-04 19:55 | 48.99613 | 2.56111 | 355 ft | 50 kts | 85° |
| 2026-05-04 19:55 | 48.99661 | 2.57024 | 357 ft | 120 kts | 85° |
| 2026-05-04 19:56 | 48.99744 | 2.58560 | 488 ft | 159 kts | 84° |
| 2026-05-04 19:56 | 48.99824 | 2.60257 | 1229 ft | 162 kts | 85° |
| 2026-05-04 19:56 | 48.99897 | 2.61984 | 2004 ft | 165 kts | 85° |
| 2026-05-04 19:56 | 48.99988 | 2.63717 | 2778 ft | 164 kts | 84° |
| 2026-05-04 19:57 | 49.00089 | 2.65439 | 3515 ft | 163 kts | 85° |
| 2026-05-04 19:57 | 49.00194 | 2.67178 | 4130 ft | 172 kts | 84° |
| 2026-05-04 19:57 | 49.00308 | 2.69083 | 4596 ft | 188 kts | 86° |
| 2026-05-04 19:57 | 49.00406 | 2.71194 | 4894 ft | 217 kts | 85° |
| 2026-05-04 19:58 | 49.00530 | 2.73655 | 5194 ft | 248 kts | 86° |
| 2026-05-04 19:58 | 49.00652 | 2.76411 | 5736 ft | 269 kts | 86° |
| 2026-05-04 19:58 | 49.00791 | 2.79266 | 6758 ft | 271 kts | 85° |
| 2026-05-04 19:58 | 49.00803 | 2.82192 | 7697 ft | 276 kts | 97° |
| 2026-05-04 19:59 | 49.00431 | 2.85030 | 8618 ft | 280 kts | 110° |
| 2026-05-04 19:59 | 48.99429 | 2.87574 | 9545 ft | 284 kts | 134° |
| 2026-05-04 19:59 | 48.97799 | 2.89291 | 10387 ft | 289 kts | 159° |
| 2026-05-04 19:59 | 48.95780 | 2.89814 | 10930 ft | 308 kts | 184° |
| 2026-05-04 20:00 | 48.93698 | 2.88765 | 11385 ft | 327 kts | 212° |
| 2026-05-04 20:00 | 48.91818 | 2.86666 | 12152 ft | 334 kts | 217° |
| 2026-05-04 20:00 | 48.89976 | 2.84545 | 12971 ft | 339 kts | 217° |
| 2026-05-04 20:00 | 48.88084 | 2.82369 | 13783 ft | 343 kts | 216° |
| 2026-05-04 20:01 | 48.86167 | 2.80173 | 14523 ft | 347 kts | 216° |
| 2026-05-04 20:01 | 48.84233 | 2.77969 | 15280 ft | 349 kts | 216° |
| 2026-05-04 20:01 | 48.82282 | 2.75753 | 16032 ft | 351 kts | 216° |
| 2026-05-04 20:01 | 48.80316 | 2.73521 | 16811 ft | 354 kts | 217° |
| 2026-05-04 20:02 | 48.78337 | 2.71279 | 17586 ft | 356 kts | 217° |
| 2026-05-04 20:02 | 48.76344 | 2.69027 | 18313 ft | 359 kts | 217° |
| 2026-05-04 20:02 | 48.74338 | 2.66758 | 18951 ft | 362 kts | 217° |
| 2026-05-04 20:02 | 48.72314 | 2.64469 | 19585 ft | 364 kts | 217° |
| 2026-05-04 20:03 | 48.70274 | 2.62162 | 20213 ft | 367 kts | 217° |
| 2026-05-04 20:03 | 48.68216 | 2.59840 | 20808 ft | 371 kts | 217° |
| 2026-05-04 20:03 | 48.66132 | 2.57492 | 21371 ft | 376 kts | 217° |
| 2026-05-04 20:03 | 48.64028 | 2.55125 | 21961 ft | 379 kts | 216° |
| 2026-05-04 20:04 | 48.61903 | 2.52740 | 22551 ft | 381 kts | 216° |
| 2026-05-04 20:04 | 48.59774 | 2.50350 | 23177 ft | 383 kts | 216° |
| 2026-05-04 20:04 | 48.57625 | 2.47956 | 23730 ft | 385 kts | 215° |
| 2026-05-04 20:04 | 48.55256 | 2.46076 | 24207 ft | 387 kts | 199° |
| 2026-05-04 20:05 | 48.52611 | 2.45359 | 24694 ft | 390 kts | 181° |
| 2026-05-04 20:05 | 48.49894 | 2.45626 | 25172 ft | 392 kts | 176° |
| 2026-05-04 20:05 | 48.47176 | 2.46015 | 25662 ft | 394 kts | 176° |
| 2026-05-04 20:05 | 48.44446 | 2.46427 | 25883 ft | 394 kts | 176° |
| 2026-05-04 20:06 | 48.41718 | 2.46841 | 25935 ft | 394 kts | 176° |
| 2026-05-04 20:06 | 48.38979 | 2.47276 | 26218 ft | 399 kts | 173° |
| 2026-05-04 20:06 | 48.36263 | 2.48289 | 26537 ft | 405 kts | 166° |
| 2026-05-04 20:06 | 48.33541 | 2.49459 | 26944 ft | 408 kts | 166° |
| 2026-05-04 20:07 | 48.30801 | 2.50652 | 27379 ft | 411 kts | 166° |
| 2026-05-04 20:07 | 48.28054 | 2.51851 | 27812 ft | 413 kts | 166° |
| 2026-05-04 20:07 | 48.25303 | 2.53052 | 28247 ft | 415 kts | 166° |
| 2026-05-04 20:07 | 48.22515 | 2.54262 | 28671 ft | 416 kts | 166° |
| 2026-05-04 20:08 | 48.19724 | 2.55468 | 29093 ft | 418 kts | 166° |
| 2026-05-04 20:08 | 48.16916 | 2.56676 | 29483 ft | 420 kts | 166° |
| 2026-05-04 20:08 | 48.14107 | 2.57884 | 29873 ft | 421 kts | 167° |
| 2026-05-04 20:08 | 48.11281 | 2.59096 | 30220 ft | 423 kts | 167° |
| 2026-05-04 20:09 | 48.08445 | 2.60308 | 30535 ft | 425 kts | 167° |
| 2026-05-04 20:09 | 48.05600 | 2.61523 | 30847 ft | 426 kts | 167° |
| 2026-05-04 20:09 | 48.02755 | 2.62739 | 30923 ft | 421 kts | 167° |
| 2026-05-04 20:09 | 47.99992 | 2.63921 | 30933 ft | 408 kts | 167° |
| 2026-05-04 20:10 | 47.97281 | 2.65080 | 30930 ft | 403 kts | 167° |
| 2026-05-04 20:10 | 47.91909 | 2.67373 | 30932 ft | 400 kts | 167° |
| 2026-05-04 20:11 | 47.86553 | 2.69645 | 30931 ft | 400 kts | 167° |
| 2026-05-04 20:11 | 47.81206 | 2.71916 | 30930 ft | 400 kts | 167° |
| 2026-05-04 20:12 | 47.75862 | 2.74182 | 30922 ft | 400 kts | 167° |
| 2026-05-04 20:12 | 47.70515 | 2.76449 | 30925 ft | 399 kts | 167° |
| 2026-05-04 20:13 | 47.65207 | 2.78681 | 30927 ft | 399 kts | 167° |
| 2026-05-04 20:13 | 47.59830 | 2.80939 | 30922 ft | 399 kts | 167° |
| 2026-05-04 20:14 | 47.54528 | 2.83167 | 30920 ft | 399 kts | 167° |
| 2026-05-04 20:14 | 47.49191 | 2.85405 | 30914 ft | 398 kts | 167° |
| 2026-05-04 20:15 | 47.43861 | 2.87624 | 30915 ft | 398 kts | 167° |
| 2026-05-04 20:15 | 47.38537 | 2.89850 | 30912 ft | 398 kts | 167° |
| 2026-05-04 20:16 | 47.33206 | 2.92072 | 30887 ft | 398 kts | 167° |
| 2026-05-04 20:16 | 47.27869 | 2.94282 | 30891 ft | 399 kts | 167° |
| 2026-05-04 20:17 | 47.22527 | 2.96493 | 30886 ft | 400 kts | 167° |
| 2026-05-04 20:17 | 47.17171 | 2.98710 | 30891 ft | 400 kts | 167° |
| 2026-05-04 20:18 | 47.11806 | 3.00925 | 30896 ft | 400 kts | 167° |
| 2026-05-04 20:18 | 47.07344 | 3.02761 | 30902 ft | 400 kts | 167° |
| 2026-05-04 20:19 | 47.01943 | 3.04982 | 30903 ft | 400 kts | 167° |
| 2026-05-04 20:19 | 46.96615 | 3.07174 | 30903 ft | 400 kts | 167° |
| 2026-05-04 20:20 | 46.91253 | 3.09377 | 30900 ft | 400 kts | 167° |
| 2026-05-04 20:20 | 46.85893 | 3.11567 | 30906 ft | 400 kts | 167° |
| 2026-05-04 20:21 | 46.80541 | 3.13749 | 30910 ft | 399 kts | 167° |
| 2026-05-04 20:21 | 46.72522 | 3.17014 | 30908 ft | 399 kts | 167° |
| 2026-05-04 20:22 | 46.67181 | 3.19182 | 30906 ft | 398 kts | 167° |
| 2026-05-04 20:22 | 46.61842 | 3.21347 | 30908 ft | 398 kts | 167° |
| 2026-05-04 20:23 | 46.56545 | 3.23482 | 30886 ft | 398 kts | 167° |
| 2026-05-04 20:23 | 46.51203 | 3.25637 | 30890 ft | 399 kts | 167° |
| 2026-05-04 20:24 | 46.45857 | 3.27797 | 30893 ft | 399 kts | 167° |
| 2026-05-04 20:24 | 46.40511 | 3.29940 | 30918 ft | 399 kts | 167° |
| 2026-05-04 20:25 | 46.35164 | 3.32086 | 30921 ft | 399 kts | 167° |
| 2026-05-04 20:25 | 46.29821 | 3.34224 | 30927 ft | 398 kts | 168° |
| 2026-05-04 20:26 | 46.24540 | 3.36629 | 30934 ft | 400 kts | 160° |
| 2026-05-04 20:26 | 46.19450 | 3.39873 | 30932 ft | 400 kts | 160° |
| 2026-05-04 20:27 | 46.14365 | 3.43136 | 30932 ft | 400 kts | 160° |
| 2026-05-04 20:27 | 46.09283 | 3.46390 | 30935 ft | 399 kts | 160° |
| 2026-05-04 20:28 | 46.04215 | 3.49632 | 30938 ft | 398 kts | 160° |
| 2026-05-04 20:28 | 45.99163 | 3.52856 | 30937 ft | 397 kts | 160° |
| 2026-05-04 20:29 | 45.94105 | 3.56060 | 30936 ft | 397 kts | 160° |
| 2026-05-04 20:29 | 45.89059 | 3.59265 | 30938 ft | 396 kts | 160° |
| 2026-05-04 20:30 | 45.84020 | 3.62443 | 30947 ft | 395 kts | 160° |
| 2026-05-04 20:30 | 45.78993 | 3.65614 | 30948 ft | 395 kts | 160° |
| 2026-05-04 20:31 | 45.73973 | 3.68787 | 30949 ft | 394 kts | 160° |
| 2026-05-04 20:31 | 45.68956 | 3.71952 | 30951 ft | 393 kts | 160° |
| 2026-05-04 20:32 | 45.63950 | 3.75095 | 30951 ft | 393 kts | 161° |
| 2026-05-04 20:32 | 45.58948 | 3.78222 | 30956 ft | 392 kts | 161° |
| 2026-05-04 20:33 | 45.53956 | 3.81337 | 30962 ft | 391 kts | 161° |
| 2026-05-04 20:33 | 45.48973 | 3.84452 | 30943 ft | 391 kts | 161° |
| 2026-05-04 20:34 | 45.43999 | 3.87554 | 30943 ft | 391 kts | 161° |
| 2026-05-04 20:34 | 45.39019 | 3.90640 | 30942 ft | 390 kts | 161° |
| 2026-05-04 20:35 | 45.34040 | 3.93715 | 30950 ft | 390 kts | 161° |
| 2026-05-04 20:35 | 45.29068 | 3.96796 | 30942 ft | 390 kts | 161° |
| 2026-05-04 20:36 | 45.24098 | 3.99878 | 30945 ft | 390 kts | 161° |
| 2026-05-04 20:36 | 45.19121 | 4.02951 | 30948 ft | 390 kts | 161° |
| 2026-05-04 20:37 | 45.14146 | 4.06009 | 30953 ft | 390 kts | 161° |
| 2026-05-04 20:37 | 45.09166 | 4.09066 | 30958 ft | 390 kts | 161° |
| 2026-05-04 20:38 | 45.04207 | 4.12107 | 30953 ft | 390 kts | 161° |
| 2026-05-04 20:38 | 44.99199 | 4.15175 | 30843 ft | 391 kts | 161° |
| 2026-05-04 20:39 | 44.96700 | 4.16701 | 30592 ft | 391 kts | 160° |
| 2026-05-04 20:39 | 44.94202 | 4.18227 | 30349 ft | 391 kts | 160° |
| 2026-05-04 20:39 | 44.91703 | 4.19754 | 30078 ft | 392 kts | 160° |
| 2026-05-04 20:39 | 44.89213 | 4.21273 | 29793 ft | 397 kts | 160° |
| 2026-05-04 20:40 | 44.86670 | 4.22823 | 29509 ft | 398 kts | 160° |
| 2026-05-04 20:40 | 44.84125 | 4.24372 | 29234 ft | 398 kts | 160° |
| 2026-05-04 20:40 | 44.81592 | 4.25911 | 28947 ft | 396 kts | 160° |
| 2026-05-04 20:40 | 44.79063 | 4.27444 | 28678 ft | 395 kts | 160° |
| 2026-05-04 20:41 | 44.76545 | 4.28971 | 28408 ft | 394 kts | 160° |
| 2026-05-04 20:41 | 44.74000 | 4.30514 | 28133 ft | 392 kts | 160° |
| 2026-05-04 20:41 | 44.71523 | 4.32016 | 27677 ft | 387 kts | 160° |
| 2026-05-04 20:41 | 44.69059 | 4.33512 | 27135 ft | 382 kts | 160° |
| 2026-05-04 20:42 | 44.66634 | 4.34982 | 26604 ft | 377 kts | 160° |
| 2026-05-04 20:42 | 44.64270 | 4.36411 | 26100 ft | 372 kts | 160° |
| 2026-05-04 20:42 | 44.61875 | 4.37852 | 25595 ft | 368 kts | 160° |
| 2026-05-04 20:42 | 44.59532 | 4.39262 | 25101 ft | 364 kts | 160° |
| 2026-05-04 20:43 | 44.57250 | 4.40634 | 24648 ft | 360 kts | 160° |
| 2026-05-04 20:43 | 44.54977 | 4.42003 | 24181 ft | 356 kts | 159° |
| 2026-05-04 20:43 | 44.52706 | 4.43371 | 23715 ft | 353 kts | 160° |
| 2026-05-04 20:43 | 44.50464 | 4.44719 | 23240 ft | 349 kts | 160° |
| 2026-05-04 20:44 | 44.48247 | 4.46050 | 22802 ft | 344 kts | 160° |
| 2026-05-04 20:44 | 44.46062 | 4.47358 | 22374 ft | 339 kts | 160° |
| 2026-05-04 20:44 | 44.43910 | 4.48643 | 21938 ft | 335 kts | 160° |
| 2026-05-04 20:44 | 44.41772 | 4.49923 | 21524 ft | 333 kts | 160° |
| 2026-05-04 20:45 | 44.39646 | 4.51196 | 21094 ft | 332 kts | 160° |
| 2026-05-04 20:45 | 44.37531 | 4.52460 | 20665 ft | 330 kts | 160° |
| 2026-05-04 20:45 | 44.35429 | 4.53716 | 20218 ft | 328 kts | 159° |
| 2026-05-04 20:45 | 44.33333 | 4.54967 | 19775 ft | 326 kts | 159° |
| 2026-05-04 20:46 | 44.31250 | 4.56210 | 19339 ft | 325 kts | 159° |
| 2026-05-04 20:46 | 44.29137 | 4.57456 | 18882 ft | 338 kts | 160° |
| 2026-05-04 20:46 | 44.26953 | 4.58735 | 18449 ft | 342 kts | 160° |
| 2026-05-04 20:46 | 44.24758 | 4.60018 | 18000 ft | 341 kts | 160° |
| 2026-05-04 20:47 | 44.22573 | 4.61293 | 17522 ft | 340 kts | 160° |
| 2026-05-04 20:47 | 44.20394 | 4.62562 | 17002 ft | 339 kts | 160° |
| 2026-05-04 20:47 | 44.18225 | 4.63826 | 16524 ft | 337 kts | 160° |
| 2026-05-04 20:47 | 44.16070 | 4.65082 | 16043 ft | 335 kts | 160° |
| 2026-05-04 20:48 | 44.13922 | 4.66334 | 15562 ft | 334 kts | 160° |
| 2026-05-04 20:48 | 44.11794 | 4.67579 | 15098 ft | 332 kts | 160° |
| 2026-05-04 20:48 | 44.09677 | 4.68827 | 14663 ft | 330 kts | 160° |
| 2026-05-04 20:48 | 44.07571 | 4.70068 | 14209 ft | 328 kts | 160° |
| 2026-05-04 20:49 | 44.05474 | 4.71300 | 13757 ft | 326 kts | 160° |
| 2026-05-04 20:49 | 44.03391 | 4.72522 | 13253 ft | 324 kts | 160° |
| 2026-05-04 20:49 | 44.01316 | 4.73733 | 12761 ft | 322 kts | 160° |
| 2026-05-04 20:49 | 43.99255 | 4.74927 | 12248 ft | 320 kts | 160° |
| 2026-05-04 20:50 | 43.97203 | 4.76106 | 11762 ft | 318 kts | 160° |
| 2026-05-04 20:50 | 43.95162 | 4.77271 | 11295 ft | 316 kts | 160° |
| 2026-05-04 20:50 | 43.93134 | 4.78419 | 10830 ft | 314 kts | 160° |
| 2026-05-04 20:50 | 43.91121 | 4.79552 | 10362 ft | 311 kts | 160° |
| 2026-05-04 20:51 | 43.89127 | 4.80667 | 9914 ft | 309 kts | 160° |
| 2026-05-04 20:51 | 43.87137 | 4.81771 | 9418 ft | 307 kts | 160° |
| 2026-05-04 20:51 | 43.85103 | 4.82531 | 8919 ft | 302 kts | 177° |
| 2026-05-04 20:51 | 43.83053 | 4.82095 | 8464 ft | 299 kts | 199° |
| 2026-05-04 20:52 | 43.81169 | 4.81009 | 8051 ft | 286 kts | 202° |
| 2026-05-04 20:52 | 43.79405 | 4.79930 | 7652 ft | 270 kts | 202° |
| 2026-05-04 20:52 | 43.77718 | 4.78884 | 7216 ft | 262 kts | 202° |
| 2026-05-04 20:52 | 43.76004 | 4.78141 | 6766 ft | 258 kts | 183° |
| 2026-05-04 20:53 | 43.74264 | 4.78573 | 6342 ft | 256 kts | 155° |
| 2026-05-04 20:53 | 43.72881 | 4.80106 | 6040 ft | 260 kts | 135° |
| 2026-05-04 20:53 | 43.71680 | 4.81984 | 5769 ft | 261 kts | 135° |
| 2026-05-04 20:53 | 43.70360 | 4.83703 | 5345 ft | 256 kts | 146° |
| 2026-05-04 20:54 | 43.69018 | 4.85202 | 5289 ft | 241 kts | 140° |
| 2026-05-04 20:54 | 43.67872 | 4.86796 | 5242 ft | 226 kts | 137° |
| 2026-05-04 20:54 | 43.66825 | 4.88320 | 5187 ft | 212 kts | 137° |
| 2026-05-04 20:54 | 43.65834 | 4.89753 | 5124 ft | 202 kts | 137° |
| 2026-05-04 20:55 | 43.64867 | 4.91146 | 5047 ft | 200 kts | 137° |
| 2026-05-04 20:55 | 43.63904 | 4.92530 | 4955 ft | 199 kts | 137° |
| 2026-05-04 20:55 | 43.62946 | 4.93908 | 4880 ft | 199 kts | 137° |
| 2026-05-04 20:55 | 43.61990 | 4.95282 | 4794 ft | 199 kts | 137° |
| 2026-05-04 20:56 | 43.61041 | 4.96647 | 4594 ft | 195 kts | 136° |
| 2026-05-04 20:56 | 43.60106 | 4.97990 | 4352 ft | 193 kts | 136° |
| 2026-05-04 20:56 | 43.59179 | 4.99321 | 4099 ft | 192 kts | 135° |
| 2026-05-04 20:56 | 43.58260 | 5.00640 | 3845 ft | 190 kts | 135° |
| 2026-05-04 20:57 | 43.57345 | 5.01952 | 3594 ft | 190 kts | 134° |
| 2026-05-04 20:57 | 43.56443 | 5.03246 | 3355 ft | 182 kts | 134° |
| 2026-05-04 20:57 | 43.55608 | 5.04443 | 3119 ft | 167 kts | 133° |
| 2026-05-04 20:57 | 43.54838 | 5.05546 | 2890 ft | 152 kts | 132° |
| 2026-05-04 20:58 | 43.54142 | 5.06541 | 2696 ft | 137 kts | 131° |
| 2026-05-04 20:58 | 43.53503 | 5.07457 | 2527 ft | 129 kts | 131° |
| 2026-05-04 20:58 | 43.52887 | 5.08338 | 2359 ft | 127 kts | 131° |
| 2026-05-04 20:58 | 43.52281 | 5.09205 | 2177 ft | 125 kts | 130° |
| 2026-05-04 20:59 | 43.51681 | 5.10064 | 2020 ft | 124 kts | 131° |
| 2026-05-04 20:59 | 43.51084 | 5.10918 | 1855 ft | 123 kts | 130° |
| 2026-05-04 20:59 | 43.50491 | 5.11766 | 1689 ft | 123 kts | 130° |
| 2026-05-04 20:59 | 43.49899 | 5.12612 | 1525 ft | 122 kts | 130° |
| 2026-05-04 21:00 | 43.49309 | 5.13456 | 1359 ft | 122 kts | 132° |
| 2026-05-04 21:00 | 43.48718 | 5.14299 | 1195 ft | 122 kts | 132° |
| 2026-05-04 21:00 | 43.48327 | 5.14858 | 1086 ft | 122 kts | 132° |
| 2026-05-04 21:00 | 43.47732 | 5.15708 | 908 ft | 127 kts | 131° |
| 2026-05-04 21:01 | 43.46945 | 5.16830 | 693 ft | 121 kts | 128° |
| 2026-05-04 21:01 | 43.46357 | 5.17665 | 530 ft | 121 kts | 128° |
| 2026-05-04 21:01 | 43.45771 | 5.18498 | 363 ft | 121 kts | 129° |
| 2026-05-04 21:01 | 43.45186 | 5.19337 | 198 ft | 122 kts | 128° |
| 2026-05-04 21:02 | 43.44595 | 5.20178 | 46 ft | 121 kts | 128° |
| 2026-05-04 21:02 | 43.44220 | 5.20718 | 28 ft | 105 kts | 132° |
| 2026-05-04 21:02 | 43.43750 | 5.21395 | 39 ft | 46 kts | 133° |
| 2026-05-04 21:02 | 43.43638 | 5.21555 | 42 ft | 30 kts | 134° |
| 2026-05-04 21:03 | 43.43505 | 5.21740 | 44 ft | 25 kts | 133° |
| 2026-05-04 21:03 | 43.43396 | 5.21897 | 46 ft | 21 kts | 133° |
| 2026-05-04 21:03 | 43.43336 | 5.22048 | 51 ft | 16 kts | 91° |
| 2026-05-04 21:03 | 43.43337 | 5.22209 | 47 ft | 14 kts | 79° |
| 2026-05-04 21:04 | 43.43406 | 5.22283 | 47 ft | 14 kts | 357° |
| 2026-05-04 21:04 | 43.43480 | 5.22237 | 50 ft | 13 kts | 330° |
| 2026-05-04 21:04 | 43.43565 | 5.22168 | 49 ft | 14 kts | 329° |
| 2026-05-04 21:04 | 43.43640 | 5.22106 | 50 ft | 11 kts | 330° |
| 2026-05-04 21:05 | 43.43704 | 5.22057 | 46 ft | 10 kts | 329° |
| 2026-05-04 21:05 | 43.43767 | 5.22030 | 46 ft | 9 kts | 8° |
| 2026-05-04 21:05 | 43.43820 | 5.22075 | 46 ft | 9 kts | 46° |
| 2026-05-04 21:05 | 43.43860 | 5.22135 | 47 ft | 9 kts | 55° |
| 2026-05-04 21:06 | 43.43843 | 5.22201 | 48 ft | 8 kts | 144° |
| 2026-05-04 21:06 | 43.43802 | 5.22229 | 50 ft | 4 kts | 127° |
| 2026-05-04 21:06 | 43.43806 | 5.22265 | 51 ft | 6 kts | 73° |
| 2026-05-04 21:06 | 43.43815 | 5.22308 | 51 ft | 2 kts | 73° |
| 2026-05-04 21:07 | 43.43817 | 5.22319 | 51 ft | 0 kts | 74° |